createdAt,value
2023-03-27T00:00:16.717Z,6.56
2023-03-27T00:03:05.012Z,6.52
2023-03-27T00:05:32.969Z,6.55
2023-03-27T00:08:01.781Z,6.57
2023-03-27T00:10:29.846Z,6.57
2023-03-27T00:12:58.100Z,6.56
2023-03-27T00:15:26.582Z,6.54
2023-03-27T00:17:55.536Z,6.54
2023-03-27T00:20:24.273Z,6.52
2023-03-27T00:27:12.404Z,6.34
2023-03-27T00:29:40.300Z,6.44
2023-03-27T00:32:08.323Z,6.52
2023-03-27T00:34:36.257Z,6.59
2023-03-27T00:37:05.785Z,6.63
2023-03-27T00:39:34.289Z,6.65
2023-03-27T00:42:02.270Z,6.64
2023-03-27T00:44:34.599Z,6.64
2023-03-27T00:47:04.455Z,6.62
2023-03-27T00:49:36.251Z,6.63
2023-03-27T00:52:06.789Z,6.60
2023-03-27T00:54:40.274Z,6.58
2023-03-27T01:00:51.822Z,6.34
2023-03-27T01:03:21.532Z,6.33
2023-03-27T01:05:51.057Z,6.28
2023-03-27T01:12:54.173Z,5.97
2023-03-27T01:15:48.165Z,5.96
2023-03-27T01:18:40.575Z,5.90
2023-03-27T01:22:05.443Z,5.85
2023-03-27T01:24:56.611Z,5.74
2023-03-27T01:27:51.675Z,5.72
2023-03-27T01:30:31.917Z,5.68
2023-03-27T01:33:14.551Z,5.65
2023-03-27T01:35:52.610Z,5.66
2023-03-27T01:38:32.062Z,5.66
2023-03-27T01:41:21.839Z,5.66
2023-03-27T01:44:03.159Z,5.63
2023-03-27T01:47:03.463Z,5.63
2023-03-27T01:49:41.155Z,5.60
2023-03-27T01:52:16.048Z,5.58
2023-03-27T01:54:58.384Z,5.52
2023-03-27T01:57:31.047Z,5.47
2023-03-27T02:00:18.030Z,5.35
2023-03-27T02:03:00.905Z,5.31
2023-03-27T02:05:42.961Z,5.31
2023-03-27T02:08:17.338Z,5.27
2023-03-27T02:10:50.839Z,5.24
2023-03-27T02:13:40.855Z,5.19
2023-03-27T02:16:15.740Z,5.08
2023-03-27T02:18:50.414Z,5.00
2023-03-27T02:21:18.479Z,4.98
2023-03-27T02:24:02.196Z,4.96
2023-03-27T02:26:33.073Z,4.93
2023-03-27T02:29:32.169Z,4.90
2023-03-27T02:32:25.222Z,4.75
2023-03-27T02:35:17.279Z,4.68
2023-03-27T02:37:59.229Z,4.64
2023-03-27T02:40:39.792Z,4.61
2023-03-27T02:43:21.842Z,4.58
2023-03-27T02:46:15.315Z,4.54
2023-03-27T02:48:47.943Z,4.45
2023-03-27T02:51:23.110Z,4.44
2023-03-27T02:53:57.724Z,4.40
2023-03-27T02:56:32.673Z,4.40
2023-03-27T02:59:08.875Z,4.39
2023-03-27T03:01:39.504Z,4.37
2023-03-27T03:04:30.114Z,4.30
2023-03-27T03:06:59.182Z,4.16
2023-03-27T03:09:31.202Z,4.12
2023-03-27T03:11:59.475Z,4.12
2023-03-27T03:14:38.847Z,4.12
2023-03-27T03:17:06.788Z,4.10
2023-03-27T03:19:34.619Z,4.06
2023-03-27T03:22:02.679Z,4.03
2023-03-27T03:24:44.188Z,3.97
2023-03-27T03:27:21.222Z,3.91
2023-03-27T03:30:25.690Z,3.86
2023-03-27T03:32:55.071Z,3.76
2023-03-27T03:35:25.089Z,3.78
2023-03-27T03:37:53.163Z,3.80
2023-03-27T03:40:21.463Z,3.78
2023-03-27T03:42:52.170Z,3.82
2023-03-27T03:45:20.480Z,3.81
2023-03-27T03:47:48.429Z,3.84
2023-03-27T03:50:16.542Z,3.85
2023-03-27T03:53:01.272Z,3.87
2023-03-27T03:55:29.682Z,3.86
2023-03-27T03:57:58.195Z,3.92
2023-03-27T04:04:35.380Z,3.89
2023-03-27T04:08:44.941Z,4.04
2023-03-27T04:11:12.848Z,4.03
2023-03-27T04:13:40.722Z,4.18
2023-03-27T04:16:09.126Z,4.24
2023-03-27T04:18:40.069Z,4.31
2023-03-27T04:24:50.940Z,4.23
2023-03-27T04:27:19.055Z,4.40
2023-03-27T04:29:47.543Z,4.49
2023-03-27T04:36:36.098Z,4.46
2023-03-27T04:39:04.694Z,4.56
2023-03-27T04:41:32.736Z,4.61
2023-03-27T04:44:00.744Z,4.65
2023-03-27T04:46:28.809Z,4.69
2023-03-27T04:53:09.535Z,4.69
2023-03-27T04:56:17.367Z,4.78
2023-03-27T04:58:46.001Z,4.74
2023-03-27T05:01:13.181Z,4.81
2023-03-27T05:03:39.964Z,4.88
2023-03-27T05:06:07.934Z,4.95
2023-03-27T05:08:35.471Z,5.00
2023-03-27T05:11:02.183Z,5.04
2023-03-27T05:13:29.204Z,5.08
2023-03-27T05:15:58.777Z,5.16
2023-03-27T05:18:25.975Z,5.24
2023-03-27T05:20:52.737Z,5.31
2023-03-27T05:23:19.477Z,5.43
2023-03-27T05:25:59.279Z,5.60
2023-03-27T05:28:29.152Z,5.79
2023-03-27T05:31:22.498Z,5.94
2023-03-27T05:34:54.808Z,5.99
2023-03-27T05:37:25.860Z,6.04
2023-03-27T05:39:56.259Z,6.24
2023-03-27T05:42:24.357Z,6.36
2023-03-27T05:44:52.454Z,6.51
2023-03-27T05:47:21.043Z,6.63
2023-03-27T05:49:48.863Z,6.73
2023-03-27T05:53:10.294Z,6.82
2023-03-27T05:55:39.571Z,6.84
2023-03-27T05:58:10.241Z,6.98
2023-03-27T06:00:44.489Z,7.14
2023-03-27T06:03:14.021Z,7.16
2023-03-27T06:05:42.586Z,7.13
2023-03-27T06:08:57.906Z,7.10
2023-03-27T06:11:48.105Z,6.85
2023-03-27T06:14:20.902Z,6.94
2023-03-27T06:16:49.452Z,7.08
2023-03-27T06:19:19.279Z,7.20
2023-03-27T06:21:49.002Z,7.28
2023-03-27T06:24:17.003Z,7.40
2023-03-27T06:26:48.363Z,7.42
2023-03-27T06:29:16.547Z,7.38
2023-03-27T06:31:44.939Z,7.37
2023-03-27T06:38:33.151Z,7.14
2023-03-27T06:41:01.860Z,7.25
2023-03-27T06:47:54.888Z,7.38
2023-03-27T06:50:25.471Z,7.42
2023-03-27T06:52:53.894Z,7.59
2023-03-27T06:55:24.315Z,7.80
2023-03-27T06:57:54.442Z,8.02
2023-03-27T07:00:26.207Z,8.25
2023-03-27T07:03:08.742Z,8.42
2023-03-27T07:05:41.306Z,8.54
2023-03-27T07:08:22.371Z,8.82
2023-03-27T07:11:07.359Z,9.06
2023-03-27T07:13:41.270Z,9.22
2023-03-27T07:16:13.828Z,9.32
2023-03-27T07:18:42.180Z,9.49
2023-03-27T07:21:10.610Z,9.62
2023-03-27T07:23:38.842Z,9.79
2023-03-27T07:26:08.770Z,10.03
2023-03-27T07:28:38.643Z,10.29
2023-03-27T07:31:16.639Z,10.51
2023-03-27T07:34:00.125Z,10.60
2023-03-27T07:36:30.143Z,10.95
2023-03-27T07:38:59.442Z,11.22
2023-03-27T07:41:31.509Z,11.38
2023-03-27T07:43:59.814Z,11.49
2023-03-27T07:46:28.251Z,11.49
2023-03-27T07:48:57.021Z,11.60
2023-03-27T07:51:25.390Z,12.14
2023-03-27T07:53:58.988Z,12.84
2023-03-27T07:56:32.029Z,12.96
2023-03-27T07:59:05.007Z,12.92
2023-03-27T08:01:34.477Z,13.35
2023-03-27T08:04:05.963Z,13.25
2023-03-27T08:06:34.672Z,13.02
2023-03-27T08:09:05.968Z,12.85
2023-03-27T08:11:40.023Z,12.64
2023-03-27T08:14:09.497Z,12.38
2023-03-27T08:16:37.775Z,12.23
2023-03-27T08:19:06.859Z,12.27
2023-03-27T08:21:34.994Z,12.42
2023-03-27T08:24:04.899Z,12.59
2023-03-27T08:26:33.845Z,12.78
2023-03-27T08:29:02.021Z,13.22
2023-03-27T08:31:31.431Z,13.37
2023-03-27T08:33:59.412Z,13.00
2023-03-27T08:36:32.085Z,12.40
2023-03-27T08:39:03.115Z,12.16
2023-03-27T08:41:39.109Z,11.85
2023-03-27T08:44:13.530Z,11.63
2023-03-27T08:46:50.151Z,11.64
2023-03-27T08:49:22.536Z,11.82
2023-03-27T08:52:14.699Z,11.97
2023-03-27T08:54:46.604Z,11.53
2023-03-27T08:57:23.155Z,11.14
2023-03-27T08:59:59.956Z,10.94
2023-03-27T09:02:55.968Z,10.53
2023-03-27T09:05:30.583Z,10.35
2023-03-27T09:08:10.658Z,10.37
2023-03-27T09:11:11.494Z,10.11
2023-03-27T09:13:52.599Z,9.83
2023-03-27T09:16:32.236Z,9.89
2023-03-27T09:19:12.056Z,9.97
2023-03-27T09:21:47.027Z,10.13
2023-03-27T09:24:29.629Z,10.09
2023-03-27T09:27:07.316Z,10.22
2023-03-27T09:29:41.791Z,10.34
2023-03-27T09:32:15.764Z,10.29
2023-03-27T09:34:44.312Z,10.13
2023-03-27T09:37:14.638Z,10.01
2023-03-27T09:39:52.437Z,9.73
2023-03-27T09:42:33.407Z,9.48
2023-03-27T09:45:06.480Z,9.46
2023-03-27T09:47:40.768Z,9.47
2023-03-27T09:50:41.541Z,9.45
2023-03-27T09:53:19.245Z,9.56
2023-03-27T09:55:53.239Z,9.38
2023-03-27T09:58:23.388Z,9.26
2023-03-27T10:01:07.861Z,9.27
2023-03-27T10:03:48.689Z,9.31
2023-03-27T10:06:39.551Z,9.36
2023-03-27T10:09:23.225Z,9.24
2023-03-27T10:12:00.574Z,9.30
2023-03-27T10:14:30.049Z,9.17
2023-03-27T10:16:58.156Z,9.20
2023-03-27T10:19:35.602Z,9.11
2023-03-27T10:22:20.368Z,9.12
2023-03-27T10:24:49.831Z,9.03
2023-03-27T10:27:25.508Z,8.94
2023-03-27T10:29:53.373Z,8.89
2023-03-27T10:32:45.402Z,8.86
2023-03-27T10:35:29.027Z,8.92
2023-03-27T10:37:57.649Z,9.17
2023-03-27T10:40:30.194Z,9.31
2023-03-27T10:43:06.187Z,9.22
2023-03-27T10:45:54.635Z,9.17
2023-03-27T10:48:38.418Z,9.02
2023-03-27T10:51:28.360Z,9.25
2023-03-27T10:54:12.069Z,9.33
2023-03-27T10:57:03.633Z,9.39
2023-03-27T11:00:10.699Z,9.39
2023-03-27T11:03:09.986Z,9.52
2023-03-27T11:05:44.632Z,9.46
2023-03-27T11:09:07.102Z,9.43
2023-03-27T11:11:52.221Z,9.51
2023-03-27T11:14:43.322Z,9.61
2023-03-27T11:17:16.218Z,10.05
2023-03-27T11:19:56.887Z,10.90
2023-03-27T11:22:57.139Z,10.95
2023-03-27T11:25:54.777Z,10.51
2023-03-27T11:28:59.835Z,10.15
2023-03-27T11:32:08.766Z,9.91
2023-03-27T11:35:22.885Z,9.66
2023-03-27T11:38:25.305Z,9.77
2023-03-27T11:40:54.957Z,10.00
2023-03-27T11:43:28.218Z,9.84
2023-03-27T11:46:09.998Z,9.66
2023-03-27T11:48:49.801Z,9.84
2023-03-27T11:51:21.526Z,10.88
2023-03-27T11:54:17.118Z,11.53
2023-03-27T11:56:59.371Z,11.17
2023-03-27T11:59:43.002Z,10.89
2023-03-27T12:02:47.742Z,10.56
2023-03-27T12:05:48.785Z,10.76
2023-03-27T12:08:27.444Z,11.69
2023-03-27T12:10:58.119Z,12.21
2023-03-27T12:14:02.282Z,12.43
2023-03-27T12:24:03.290Z,11.92
2023-03-27T12:27:33.740Z,11.42
2023-03-27T12:34:39.445Z,11.51
2023-03-27T12:37:41.988Z,12.92
2023-03-27T12:44:28.058Z,13.42
2023-03-27T13:01:42.032Z,11.32
2023-03-27T13:08:38.483Z,11.87
2023-03-27T13:11:40.991Z,12.35
2023-03-27T13:14:35.290Z,12.92
2023-03-27T13:18:04.876Z,12.94
2023-03-27T13:24:40.646Z,12.11
2023-03-27T14:18:51.424Z,8.56
2023-03-27T14:50:57.004Z,7.04
2023-03-27T14:54:11.733Z,6.85
2023-03-27T15:11:41.310Z,6.36
2023-03-27T15:53:42.418Z,6.01
2023-03-27T15:56:38.330Z,5.72
2023-03-27T15:59:15.558Z,5.52
2023-03-27T16:01:54.095Z,5.37
2023-03-27T16:07:09.695Z,5.48
2023-03-27T16:20:48.647Z,5.32
2023-03-27T16:34:34.033Z,5.30
2023-03-27T16:47:41.734Z,5.35
2023-03-27T16:50:22.038Z,5.23
2023-03-27T16:52:53.050Z,5.32
2023-03-27T16:55:28.623Z,5.20
2023-03-27T16:57:57.505Z,5.23
2023-03-27T17:00:34.146Z,5.31
2023-03-27T17:03:02.376Z,5.11
2023-03-27T17:05:51.834Z,5.00
2023-03-27T17:08:21.491Z,4.80
2023-03-27T17:10:50.124Z,4.73
2023-03-27T17:13:20.738Z,4.76
2023-03-27T17:15:55.678Z,4.81
2023-03-27T17:19:55.529Z,4.67
2023-03-27T17:24:06.122Z,4.53
2023-03-27T17:28:07.242Z,4.34
2023-03-27T17:31:14.543Z,4.16
2023-03-27T17:34:30.786Z,4.02
2023-03-27T17:38:06.700Z,3.89
2023-03-27T17:41:49.320Z,3.86
2023-03-27T17:45:24.078Z,3.78
2023-03-27T17:49:06.596Z,3.63
2023-03-27T17:52:50.045Z,3.66
2023-03-27T18:07:05.544Z,4.14
2023-03-27T18:10:21.774Z,4.10
2023-03-27T18:12:55.138Z,3.97
2023-03-27T18:15:21.927Z,3.98
2023-03-27T18:17:49.834Z,3.90
2023-03-27T18:20:16.921Z,3.81
2023-03-27T18:23:46.061Z,3.72
2023-03-27T18:51:41.861Z,3.38
2023-03-27T18:54:10.241Z,3.17
2023-03-27T18:56:40.406Z,3.16
2023-03-27T18:59:11.378Z,3.21
2023-03-27T19:01:39.746Z,3.13
2023-03-27T19:04:09.777Z,3.03
2023-03-27T19:06:39.811Z,3.09
2023-03-27T19:09:10.850Z,3.14
2023-03-27T19:11:40.164Z,3.08
2023-03-27T19:14:11.563Z,3.08
2023-03-27T19:17:21.197Z,3.05
2023-03-27T19:20:02.455Z,2.84
2023-03-27T19:22:32.877Z,2.87
2023-03-27T19:25:05.155Z,2.88
2023-03-27T19:27:38.749Z,2.85
2023-03-27T19:30:12.086Z,2.67
2023-03-27T19:33:37.769Z,2.50
2023-03-27T19:36:12.097Z,2.29
2023-03-27T19:38:40.656Z,2.39
2023-03-27T19:41:12.903Z,2.37
2023-03-27T19:43:41.118Z,2.42
2023-03-27T19:48:42.020Z,2.40
2023-03-27T19:51:10.000Z,2.38
2023-03-27T19:53:42.216Z,2.35
2023-03-27T19:56:11.961Z,2.25
2023-03-27T19:58:43.727Z,2.21
2023-03-27T20:01:18.766Z,2.15
2023-03-27T20:03:50.715Z,2.05
2023-03-27T20:06:24.305Z,2.06
2023-03-27T20:08:54.093Z,2.02
2023-03-27T20:11:31.161Z,2.03
2023-03-27T20:14:03.186Z,1.96
2023-03-27T20:16:50.163Z,1.94
2023-03-27T20:19:22.792Z,1.87
2023-03-27T20:22:02.605Z,1.82
2023-03-27T20:24:30.908Z,1.76
2023-03-27T20:27:22.145Z,1.75
2023-03-27T20:29:58.402Z,1.61
2023-03-27T20:32:27.915Z,1.58
2023-03-27T20:35:24.709Z,1.58
2023-03-27T20:37:59.273Z,1.51
2023-03-27T20:40:32.860Z,1.43
2023-03-27T20:43:06.375Z,1.42
2023-03-27T20:45:34.472Z,1.37
2023-03-27T20:48:06.951Z,1.38
2023-03-27T20:50:36.971Z,1.30
2023-03-27T20:53:09.993Z,1.30
2023-03-27T20:55:49.595Z,1.25
2023-03-27T20:58:28.829Z,1.14
2023-03-27T21:01:38.028Z,1.11
2023-03-27T21:04:07.196Z,0.88
2023-03-27T21:06:36.717Z,0.96
2023-03-27T21:16:42.476Z,0.73
2023-03-27T21:19:14.332Z,0.62
2023-03-27T21:21:42.247Z,0.64
2023-03-27T21:24:10.619Z,0.67
2023-03-27T21:26:39.324Z,0.71
2023-03-27T21:29:15.482Z,0.69
2023-03-27T21:31:43.695Z,0.60
2023-03-27T21:34:35.432Z,0.49
2023-03-27T21:37:03.532Z,0.32
2023-03-27T21:39:32.035Z,0.40
2023-03-27T21:42:04.531Z,0.41
2023-03-27T21:44:33.598Z,0.37
2023-03-27T21:56:50.278Z,0.03
2023-03-27T21:59:18.766Z,-0.08
2023-03-27T22:01:50.875Z,-0.02
2023-03-27T22:04:21.693Z,0.05
2023-03-27T22:06:52.326Z,0.07
2023-03-27T22:09:20.390Z,0.10
2023-03-27T22:11:48.402Z,0.15
2023-03-27T22:14:19.562Z,0.15
2023-03-27T22:16:48.499Z,0.14
2023-03-27T22:19:17.238Z,0.10
2023-03-27T22:21:47.798Z,0.04
2023-03-27T22:24:16.165Z,0.02
2023-03-27T22:26:44.345Z,-0.02
2023-03-27T22:29:12.923Z,0.01
2023-03-27T22:31:40.994Z,0.00
2023-03-27T22:34:10.169Z,0.01
2023-03-27T22:36:41.601Z,0.02
2023-03-27T22:39:09.610Z,0.03
2023-03-27T22:41:37.761Z,-0.02
2023-03-27T22:44:08.645Z,-0.03
2023-03-27T22:46:58.930Z,-0.07
2023-03-27T22:49:27.323Z,-0.03
2023-03-27T22:51:56.432Z,-0.04
2023-03-27T22:54:24.672Z,-0.07
2023-03-27T22:56:55.529Z,-0.07
2023-03-27T22:59:24.108Z,-0.10
2023-03-27T23:06:06.751Z,-0.35
2023-03-27T23:08:37.018Z,-0.31
2023-03-27T23:11:08.085Z,-0.29
2023-03-27T23:13:41.459Z,-0.27
2023-03-27T23:16:11.026Z,-0.28
2023-03-27T23:18:39.789Z,-0.29
2023-03-27T23:21:11.052Z,-0.30
2023-03-27T23:23:40.798Z,-0.31
2023-03-27T23:26:10.396Z,-0.33
2023-03-27T23:28:41.759Z,-0.34
2023-03-27T23:31:15.743Z,-0.37
2023-03-27T23:34:35.644Z,-0.40
2023-03-27T23:37:08.070Z,-0.48
2023-03-27T23:39:36.106Z,-0.47
2023-03-27T23:42:04.105Z,-0.44
2023-03-27T23:44:32.211Z,-0.40
2023-03-27T23:47:00.434Z,-0.41
2023-03-27T23:49:29.257Z,-0.42
2023-03-27T23:51:57.414Z,-0.44
2023-03-27T23:54:25.507Z,-0.44
2023-03-27T23:56:54.491Z,-0.46
2023-03-27T23:59:22.537Z,-0.49
